createdAt,value
2023-03-28T00:00:02.626Z,3.07
2023-03-28T00:01:02.648Z,3.04
2023-03-28T00:02:02.592Z,2.95
2023-03-28T00:03:02.592Z,2.98
2023-03-28T00:04:02.610Z,3.03
2023-03-28T00:05:02.556Z,3.05
2023-03-28T00:06:02.904Z,3.07
2023-03-28T00:07:02.553Z,3.01
2023-03-28T00:08:02.520Z,2.98
2023-03-28T00:09:02.510Z,3.03
2023-03-28T00:10:02.501Z,3.04
2023-03-28T00:11:02.511Z,3.03
2023-03-28T00:12:02.483Z,2.97
2023-03-28T00:13:02.468Z,2.93
2023-03-28T00:14:02.455Z,2.92
2023-03-28T00:15:02.446Z,2.86
2023-03-28T00:16:02.751Z,2.92
2023-03-28T00:17:02.461Z,2.97
2023-03-28T00:18:02.445Z,2.97
2023-03-28T00:19:02.419Z,2.83
2023-03-28T00:20:02.388Z,2.85
2023-03-28T00:21:02.378Z,2.95
2023-03-28T00:22:02.375Z,2.97
2023-03-28T00:23:02.360Z,2.89
2023-03-28T00:24:02.387Z,2.97
2023-03-28T00:25:03.115Z,2.93
2023-03-28T00:26:02.321Z,2.98
2023-03-28T00:27:02.330Z,2.92
2023-03-28T00:28:02.301Z,2.87
2023-03-28T00:29:02.298Z,2.97
2023-03-28T00:30:02.277Z,2.93
2023-03-28T00:31:02.286Z,2.92
2023-03-28T00:32:02.282Z,2.98
2023-03-28T00:33:02.299Z,3.04
2023-03-28T00:34:02.241Z,3.03
2023-03-28T00:35:02.235Z,3.05
2023-03-28T00:36:02.502Z,2.95
2023-03-28T00:37:02.211Z,2.92
2023-03-28T00:38:02.199Z,2.90
2023-03-28T00:39:02.189Z,2.89
2023-03-28T00:40:02.175Z,2.95
2023-03-28T00:41:02.164Z,2.82
2023-03-28T00:42:02.146Z,2.85
2023-03-28T00:43:02.140Z,2.85
2023-03-28T00:44:02.134Z,2.82
2023-03-28T00:45:02.137Z,2.82
2023-03-28T00:46:09.031Z,2.89
2023-03-28T00:47:03.125Z,2.92
2023-03-28T00:48:02.177Z,2.93
2023-03-28T00:49:02.106Z,2.97
2023-03-28T00:50:02.056Z,2.98
2023-03-28T00:51:02.054Z,2.87
2023-03-28T00:52:02.053Z,3.01
2023-03-28T00:53:02.030Z,2.90
2023-03-28T00:54:02.009Z,2.85
2023-03-28T00:55:02.006Z,2.87
2023-03-28T00:56:02.009Z,2.82
2023-03-28T00:57:01.992Z,2.87
2023-03-28T00:58:01.979Z,2.97
2023-03-28T00:59:01.960Z,2.97
2023-03-28T01:00:01.947Z,2.83
2023-03-28T01:01:01.952Z,2.93
2023-03-28T01:02:02.067Z,3.00
2023-03-28T01:03:01.962Z,2.90
2023-03-28T01:04:01.907Z,2.87
2023-03-28T01:05:01.945Z,2.95
2023-03-28T01:06:02.132Z,2.90
2023-03-28T01:07:01.876Z,2.89
2023-03-28T01:08:01.856Z,3.00
2023-03-28T01:09:01.852Z,2.92
2023-03-28T01:10:01.889Z,2.95
2023-03-28T01:11:01.847Z,3.03
2023-03-28T01:12:01.814Z,2.97
2023-03-28T01:13:01.805Z,3.01
2023-03-28T01:14:01.790Z,2.95
2023-03-28T01:15:01.815Z,2.89
2023-03-28T01:16:02.027Z,2.85
2023-03-28T01:17:01.772Z,2.93
2023-03-28T01:18:01.789Z,2.87
2023-03-28T01:19:01.733Z,2.95
2023-03-28T01:20:01.789Z,2.92
2023-03-28T01:21:01.732Z,2.83
2023-03-28T01:22:01.715Z,2.92
2023-03-28T01:23:01.688Z,2.87
2023-03-28T01:24:11.537Z,2.87
2023-03-28T01:25:02.712Z,2.92
2023-03-28T01:26:02.010Z,2.86
2023-03-28T01:27:01.664Z,2.89
2023-03-28T01:28:01.647Z,2.95
2023-03-28T01:29:01.626Z,2.87
2023-03-28T01:30:01.635Z,2.82
2023-03-28T01:31:01.614Z,2.83
2023-03-28T01:32:08.681Z,2.83
2023-03-28T01:33:01.611Z,2.79
2023-03-28T01:34:01.564Z,2.75
2023-03-28T01:35:01.552Z,2.80
2023-03-28T01:36:01.909Z,2.83
2023-03-28T01:37:01.570Z,2.86
2023-03-28T01:38:01.524Z,2.79
2023-03-28T01:39:01.505Z,2.80
2023-03-28T01:40:01.543Z,2.79
2023-03-28T01:41:01.545Z,2.71
2023-03-28T01:42:01.484Z,2.74
2023-03-28T01:43:01.479Z,2.69
2023-03-28T01:44:01.479Z,2.72
2023-03-28T01:45:01.464Z,2.74
2023-03-28T01:46:01.769Z,2.72
2023-03-28T01:47:01.474Z,2.72
2023-03-28T01:48:01.447Z,2.74
2023-03-28T01:49:01.421Z,2.71
2023-03-28T01:50:01.423Z,2.74
2023-03-28T01:51:01.372Z,2.65
2023-03-28T01:52:01.360Z,2.62
2023-03-28T01:53:01.429Z,2.60
2023-03-28T01:54:01.364Z,2.57
2023-03-28T01:55:01.328Z,2.64
2023-03-28T01:56:01.514Z,2.60
2023-03-28T01:57:01.446Z,2.56
2023-03-28T01:58:01.297Z,2.54
2023-03-28T01:59:01.294Z,2.60
2023-03-28T02:00:01.280Z,2.62
2023-03-28T02:01:01.318Z,2.51
2023-03-28T02:02:01.301Z,2.47
2023-03-28T02:03:01.378Z,2.51
2023-03-28T02:04:01.238Z,2.47
2023-03-28T02:05:01.224Z,2.64
2023-03-28T02:06:01.571Z,2.47
2023-03-28T02:07:01.213Z,2.62
2023-03-28T02:08:01.181Z,2.54
2023-03-28T02:09:01.194Z,2.56
2023-03-28T02:10:01.172Z,2.53
2023-03-28T02:11:01.157Z,2.53
2023-03-28T02:12:01.145Z,2.51
2023-03-28T02:13:01.157Z,2.49
2023-03-28T02:14:01.123Z,2.42
2023-03-28T02:15:01.124Z,2.47
2023-03-28T02:16:01.379Z,2.54
2023-03-28T02:17:01.090Z,2.56
2023-03-28T02:18:01.221Z,2.51
2023-03-28T02:19:01.084Z,2.54
2023-03-28T02:20:01.280Z,2.51
2023-03-28T02:21:01.063Z,2.53
2023-03-28T02:22:01.031Z,2.42
2023-03-28T02:23:01.034Z,2.50
2023-03-28T02:24:01.014Z,2.43
2023-03-28T02:25:01.031Z,2.47
2023-03-28T02:26:01.255Z,2.47
2023-03-28T02:27:00.999Z,2.47
2023-03-28T02:28:00.979Z,2.51
2023-03-28T02:29:00.972Z,2.43
2023-03-28T02:30:00.942Z,2.53
2023-03-28T02:31:00.938Z,2.44
2023-03-28T02:32:01.009Z,2.43
2023-03-28T02:33:00.989Z,2.56
2023-03-28T02:34:00.913Z,2.50
2023-03-28T02:35:00.898Z,2.46
2023-03-28T02:36:01.126Z,2.49
2023-03-28T02:37:00.872Z,2.38
2023-03-28T02:38:00.870Z,2.46
2023-03-28T02:39:00.855Z,2.42
2023-03-28T02:40:00.840Z,2.39
2023-03-28T02:41:00.863Z,2.42
2023-03-28T02:42:00.849Z,2.26
2023-03-28T02:43:00.805Z,2.36
2023-03-28T02:44:00.789Z,2.32
2023-03-28T02:45:00.791Z,2.32
2023-03-28T02:46:00.985Z,2.35
2023-03-28T02:47:01.442Z,2.28
2023-03-28T02:48:00.823Z,2.25
2023-03-28T02:49:00.743Z,2.24
2023-03-28T02:50:00.751Z,2.15
2023-03-28T02:51:00.755Z,2.17
2023-03-28T02:52:00.714Z,2.22
2023-03-28T02:53:00.705Z,2.18
2023-03-28T02:54:00.683Z,2.18
2023-03-28T02:55:01.677Z,2.26
2023-03-28T02:56:00.880Z,2.11
2023-03-28T02:57:00.723Z,2.08
2023-03-28T02:58:00.642Z,2.13
2023-03-28T02:59:00.652Z,2.08
2023-03-28T03:00:00.621Z,2.10
2023-03-28T03:01:00.636Z,2.08
2023-03-28T03:02:00.596Z,2.11
2023-03-28T03:03:00.638Z,2.08
2023-03-28T03:04:00.681Z,2.10
2023-03-28T03:05:00.588Z,2.17
2023-03-28T03:06:00.656Z,2.17
2023-03-28T03:07:00.562Z,2.22
2023-03-28T03:08:00.537Z,2.10
2023-03-28T03:09:00.545Z,2.08
2023-03-28T03:10:00.528Z,2.11
2023-03-28T03:11:00.502Z,2.13
2023-03-28T03:12:00.488Z,2.11
2023-03-28T03:13:00.519Z,1.95
2023-03-28T03:14:00.495Z,1.91
2023-03-28T03:15:00.492Z,1.94
2023-03-28T03:16:00.675Z,1.88
2023-03-28T03:17:00.447Z,1.94
2023-03-28T03:18:00.515Z,1.97
2023-03-28T03:19:00.412Z,1.89
2023-03-28T03:20:00.413Z,1.85
2023-03-28T03:21:00.393Z,1.91
2023-03-28T03:22:00.393Z,1.84
2023-03-28T03:23:00.362Z,1.92
2023-03-28T03:24:00.361Z,1.87
2023-03-28T03:25:00.338Z,1.87
2023-03-28T03:26:00.825Z,1.91
2023-03-28T03:27:00.322Z,1.80
2023-03-28T03:28:00.310Z,1.77
2023-03-28T03:29:00.326Z,1.74
2023-03-28T03:30:00.308Z,1.81
2023-03-28T03:31:00.305Z,1.78
2023-03-28T03:32:00.261Z,1.76
2023-03-28T03:33:00.321Z,1.78
2023-03-28T03:34:00.684Z,1.85
2023-03-28T03:35:00.228Z,1.78
2023-03-28T03:36:01.353Z,1.81
2023-03-28T03:37:00.215Z,1.85
2023-03-28T03:38:00.277Z,1.85
2023-03-28T03:39:00.175Z,1.85
2023-03-28T03:40:00.212Z,1.87
2023-03-28T03:41:00.173Z,1.78
2023-03-28T03:42:00.208Z,1.84
2023-03-28T03:43:00.132Z,1.85
2023-03-28T03:44:00.137Z,1.80
2023-03-28T03:45:00.149Z,1.78
2023-03-28T03:46:00.289Z,1.85
2023-03-28T03:47:00.120Z,1.88
2023-03-28T03:48:00.162Z,1.80
2023-03-28T03:49:00.103Z,1.71
2023-03-28T03:50:00.109Z,1.76
2023-03-28T03:51:00.052Z,1.67
2023-03-28T03:52:00.039Z,1.77
2023-03-28T03:53:00.027Z,1.73
2023-03-28T03:54:00.027Z,1.70
2023-03-28T03:55:00.001Z,1.78
2023-03-28T03:56:00.333Z,1.73
2023-03-28T03:57:00.014Z,1.71
2023-03-28T03:57:59.988Z,1.67
2023-03-28T03:58:59.970Z,1.66
2023-03-28T03:59:59.957Z,1.70
2023-03-28T04:01:00.043Z,1.71
2023-03-28T04:02:00.023Z,1.66
2023-03-28T04:02:59.949Z,1.74
2023-03-28T04:03:59.986Z,1.68
2023-03-28T04:04:59.902Z,1.68
2023-03-28T04:06:00.093Z,1.71
2023-03-28T04:06:59.887Z,1.67
2023-03-28T04:07:59.869Z,1.63
2023-03-28T04:08:59.855Z,1.73
2023-03-28T04:09:59.867Z,1.62
2023-03-28T04:10:59.823Z,1.71
2023-03-28T04:11:59.828Z,1.62
2023-03-28T04:12:59.805Z,1.68
2023-03-28T04:13:59.800Z,1.63
2023-03-28T04:14:59.791Z,1.63
2023-03-28T04:16:00.030Z,1.55
2023-03-28T04:16:59.805Z,1.58
2023-03-28T04:18:01.269Z,1.58
2023-03-28T04:18:59.742Z,1.59
2023-03-28T04:19:59.729Z,1.55
2023-03-28T04:20:59.726Z,1.53
2023-03-28T04:21:59.715Z,1.52
2023-03-28T04:22:59.695Z,1.49
2023-03-28T04:23:59.677Z,1.55
2023-03-28T04:24:59.682Z,1.45
2023-03-28T04:25:59.866Z,1.53
2023-03-28T04:26:59.655Z,1.52
2023-03-28T04:27:59.641Z,1.52
2023-03-28T04:28:59.623Z,1.45
2023-03-28T04:29:59.619Z,1.49
2023-03-28T04:30:59.877Z,1.50
2023-03-28T04:31:59.592Z,1.56
2023-03-28T04:32:59.627Z,1.37
2023-03-28T04:33:59.581Z,1.45
2023-03-28T04:34:59.557Z,1.45
2023-03-28T04:35:59.717Z,1.45
2023-03-28T04:36:59.543Z,1.44
2023-03-28T04:37:59.528Z,1.45
2023-03-28T04:38:59.511Z,1.53
2023-03-28T04:39:59.522Z,1.55
2023-03-28T04:40:59.507Z,1.53
2023-03-28T04:41:59.534Z,1.56
2023-03-28T04:42:59.484Z,1.53
2023-03-28T04:43:59.460Z,1.56
2023-03-28T04:44:59.451Z,1.56
2023-03-28T04:45:59.802Z,1.53
2023-03-28T04:46:59.440Z,1.50
2023-03-28T04:47:59.464Z,1.67
2023-03-28T04:48:59.425Z,1.68
2023-03-28T04:49:59.405Z,1.55
2023-03-28T04:50:59.403Z,1.56
2023-03-28T04:51:59.378Z,1.68
2023-03-28T04:52:59.360Z,1.63
2023-03-28T04:53:59.354Z,1.59
2023-03-28T04:54:59.346Z,1.56
2023-03-28T04:55:59.444Z,1.53
2023-03-28T04:56:59.338Z,1.55
2023-03-28T04:57:59.313Z,1.52
2023-03-28T04:58:59.312Z,1.58
2023-03-28T04:59:59.294Z,1.50
2023-03-28T05:00:59.515Z,1.53
2023-03-28T05:01:59.384Z,1.56
2023-03-28T05:02:59.312Z,1.48
2023-03-28T05:03:59.241Z,1.42
2023-03-28T05:04:59.243Z,1.49
2023-03-28T05:05:59.216Z,1.50
2023-03-28T05:06:59.219Z,1.45
2023-03-28T05:07:59.195Z,1.45
2023-03-28T05:08:59.178Z,1.52
2023-03-28T05:09:59.174Z,1.45
2023-03-28T05:10:59.333Z,1.40
2023-03-28T05:11:59.183Z,1.48
2023-03-28T05:12:59.142Z,1.49
2023-03-28T05:13:59.124Z,1.45
2023-03-28T05:14:59.119Z,1.40
2023-03-28T05:15:59.177Z,1.48
2023-03-28T05:16:59.115Z,1.48
2023-03-28T05:17:59.103Z,1.58
2023-03-28T05:18:59.153Z,1.52
2023-03-28T05:19:59.070Z,1.53
2023-03-28T05:20:59.211Z,1.56
2023-03-28T05:21:59.053Z,1.59
2023-03-28T05:22:59.016Z,1.60
2023-03-28T05:23:59.015Z,1.53
2023-03-28T05:24:59.000Z,1.55
2023-03-28T05:25:58.988Z,1.58
2023-03-28T05:26:59.001Z,1.56
2023-03-28T05:27:58.964Z,1.56
2023-03-28T05:28:58.954Z,1.56
2023-03-28T05:29:58.951Z,1.63
2023-03-28T05:30:59.180Z,1.67
2023-03-28T05:31:58.983Z,1.56
2023-03-28T05:32:58.958Z,1.66
2023-03-28T05:33:58.907Z,1.60
2023-03-28T05:34:58.887Z,1.70
2023-03-28T05:35:58.921Z,1.58
2023-03-28T05:36:58.887Z,1.58
2023-03-28T05:37:58.864Z,1.66
2023-03-28T05:38:58.864Z,1.63
2023-03-28T05:39:58.861Z,1.70
2023-03-28T05:40:59.341Z,1.67
2023-03-28T05:41:58.814Z,1.70
2023-03-28T05:42:58.812Z,1.74
2023-03-28T05:43:58.792Z,1.68
2023-03-28T05:44:58.802Z,1.71
2023-03-28T05:45:58.841Z,1.59
2023-03-28T05:46:58.760Z,1.70
2023-03-28T05:47:58.804Z,1.71
2023-03-28T05:48:58.742Z,1.68
2023-03-28T05:49:58.730Z,1.63
2023-03-28T05:50:58.876Z,1.71
2023-03-28T05:51:58.708Z,1.73
2023-03-28T05:52:58.719Z,1.80
2023-03-28T05:53:58.699Z,1.84
2023-03-28T05:54:58.666Z,1.88
2023-03-28T05:55:58.660Z,1.84
2023-03-28T05:56:58.705Z,1.87
2023-03-28T05:57:58.636Z,1.89
2023-03-28T05:58:58.644Z,1.88
2023-03-28T05:59:58.657Z,1.91
2023-03-28T06:00:58.733Z,1.97
2023-03-28T06:01:58.595Z,1.97
2023-03-28T06:02:58.642Z,2.04
2023-03-28T06:03:58.602Z,2.11
2023-03-28T06:04:58.579Z,2.07
2023-03-28T06:05:58.567Z,2.06
2023-03-28T06:06:58.532Z,2.22
2023-03-28T06:07:58.549Z,2.13
2023-03-28T06:08:58.529Z,2.18
2023-03-28T06:09:58.504Z,2.29
2023-03-28T06:10:58.643Z,2.50
2023-03-28T06:11:58.514Z,2.54
2023-03-28T06:12:58.474Z,2.69
2023-03-28T06:13:58.469Z,2.83
2023-03-28T06:14:58.454Z,2.82
2023-03-28T06:15:58.440Z,3.03
2023-03-28T06:16:58.479Z,3.05
2023-03-28T06:17:58.458Z,3.16
2023-03-28T06:19:10.594Z,3.28
2023-03-28T06:19:59.400Z,3.41
2023-03-28T06:20:58.609Z,3.58
2023-03-28T06:21:58.402Z,3.92
2023-03-28T06:22:58.376Z,4.24
2023-03-28T06:23:58.346Z,4.38
2023-03-28T06:24:58.354Z,4.31
2023-03-28T06:25:58.335Z,4.52
2023-03-28T06:26:58.321Z,4.45
2023-03-28T06:27:58.330Z,4.55
2023-03-28T06:28:58.286Z,4.30
2023-03-28T06:29:58.282Z,4.14
2023-03-28T06:30:58.539Z,3.98
2023-03-28T06:31:58.330Z,3.80
2023-03-28T06:32:58.271Z,3.58
2023-03-28T06:33:58.241Z,3.55
2023-03-28T06:34:58.227Z,3.42
2023-03-28T06:35:58.245Z,3.40
2023-03-28T06:36:58.201Z,3.25
2023-03-28T06:37:58.186Z,3.28
2023-03-28T06:38:58.185Z,3.26
2023-03-28T06:39:58.170Z,3.26
2023-03-28T06:40:58.417Z,3.23
2023-03-28T06:41:58.167Z,3.22
2023-03-28T06:42:58.138Z,3.26
2023-03-28T06:43:58.132Z,3.26
2023-03-28T06:44:58.126Z,3.29
2023-03-28T06:45:58.147Z,3.28
2023-03-28T06:46:58.102Z,3.42
2023-03-28T06:47:58.136Z,3.45
2023-03-28T06:48:58.075Z,3.44
2023-03-28T06:49:58.063Z,3.40
2023-03-28T06:50:58.259Z,3.41
2023-03-28T06:51:58.041Z,3.47
2023-03-28T06:52:58.026Z,3.42
2023-03-28T06:53:58.019Z,3.41
2023-03-28T06:54:58.004Z,3.40
2023-03-28T06:55:58.021Z,3.45
2023-03-28T06:56:58.039Z,3.48
2023-03-28T06:57:57.978Z,3.47
2023-03-28T06:58:57.957Z,3.56
2023-03-28T06:59:57.943Z,3.69
2023-03-28T07:00:58.179Z,3.76
2023-03-28T07:01:58.003Z,3.84
2023-03-28T07:02:57.974Z,3.83
2023-03-28T07:03:58.105Z,4.08
2023-03-28T07:04:57.897Z,4.14
2023-03-28T07:05:57.884Z,4.12
2023-03-28T07:06:57.875Z,4.01
2023-03-28T07:07:57.857Z,4.10
2023-03-28T07:08:57.846Z,4.13
2023-03-28T07:09:57.847Z,4.22
2023-03-28T07:10:57.930Z,4.31
2023-03-28T07:11:57.820Z,4.41
2023-03-28T07:12:57.847Z,4.56
2023-03-28T07:13:57.793Z,4.92
2023-03-28T07:14:57.786Z,5.11
2023-03-28T07:15:57.778Z,5.10
2023-03-28T07:16:57.808Z,5.08
2023-03-28T07:17:57.784Z,4.86
2023-03-28T07:18:57.759Z,4.77
2023-03-28T07:19:57.723Z,4.70
2023-03-28T07:21:03.945Z,4.90
2023-03-28T07:21:58.697Z,5.43
2023-03-28T07:22:57.699Z,5.68
2023-03-28T07:23:57.677Z,5.68
2023-03-28T07:24:57.664Z,5.79
2023-03-28T07:25:57.654Z,5.90
2023-03-28T07:27:14.091Z,5.94
2023-03-28T07:27:58.632Z,5.99
2023-03-28T07:28:57.657Z,5.91
2023-03-28T07:29:57.630Z,5.99
2023-03-28T07:30:57.679Z,6.02
2023-03-28T07:31:57.689Z,5.87
2023-03-28T07:33:17.378Z,5.71
2023-03-28T07:33:58.624Z,5.79
2023-03-28T07:34:57.556Z,5.82
2023-03-28T07:35:57.612Z,5.94
2023-03-28T07:36:57.557Z,6.07
2023-03-28T07:37:57.538Z,6.14
2023-03-28T07:38:57.512Z,6.31
2023-03-28T07:39:57.503Z,6.30
2023-03-28T07:40:57.507Z,6.31
2023-03-28T07:41:57.472Z,6.35
2023-03-28T07:42:57.501Z,6.51
2023-03-28T07:43:57.469Z,6.64
2023-03-28T07:44:57.465Z,6.75
2023-03-28T07:45:57.440Z,6.70
2023-03-28T07:46:57.418Z,6.63
2023-03-28T07:47:57.477Z,6.72
2023-03-28T07:48:57.408Z,6.75
2023-03-28T07:49:57.392Z,6.81
2023-03-28T07:50:57.651Z,6.84
2023-03-28T07:51:57.362Z,6.81
2023-03-28T07:52:57.398Z,6.85
2023-03-28T07:53:57.340Z,6.75
2023-03-28T07:54:57.332Z,6.66
2023-03-28T07:55:57.319Z,6.69
2023-03-28T07:56:57.323Z,6.84
2023-03-28T07:57:57.300Z,6.84
2023-03-28T07:58:57.292Z,6.99
2023-03-28T07:59:57.264Z,6.89
2023-03-28T08:00:57.351Z,6.82
2023-03-28T08:01:57.245Z,7.00
2023-03-28T08:02:57.284Z,6.89
2023-03-28T08:03:57.325Z,6.88
2023-03-28T08:04:57.216Z,6.93
2023-03-28T08:05:57.275Z,7.00
2023-03-28T08:06:57.189Z,7.05
2023-03-28T08:07:57.183Z,7.03
2023-03-28T08:08:57.165Z,7.18
2023-03-28T08:09:59.059Z,7.17
2023-03-28T08:10:57.301Z,7.29
2023-03-28T08:11:57.136Z,7.25
2023-03-28T08:12:57.150Z,7.33
2023-03-28T08:13:57.107Z,7.25
2023-03-28T08:14:57.125Z,7.38
2023-03-28T08:15:57.136Z,7.38
2023-03-28T08:16:57.100Z,7.47
2023-03-28T08:17:57.125Z,7.53
2023-03-28T08:19:10.021Z,7.50
2023-03-28T08:19:58.084Z,7.43
2023-03-28T08:20:57.038Z,7.61
2023-03-28T08:21:57.023Z,7.61
2023-03-28T08:22:57.027Z,7.50
2023-03-28T08:23:57.008Z,7.40
2023-03-28T08:24:56.989Z,7.36
2023-03-28T08:25:56.999Z,7.29
2023-03-28T08:26:56.973Z,7.40
2023-03-28T08:27:56.954Z,7.42
2023-03-28T08:28:56.948Z,7.38
2023-03-28T08:29:56.932Z,7.35
2023-03-28T08:30:56.973Z,7.47
2023-03-28T08:31:56.913Z,7.56
2023-03-28T08:32:56.975Z,7.50
2023-03-28T08:33:56.904Z,7.42
2023-03-28T08:34:56.880Z,7.32
2023-03-28T08:35:56.981Z,7.33
2023-03-28T08:36:56.855Z,7.31
2023-03-28T08:37:56.843Z,7.29
2023-03-28T08:38:56.838Z,7.13
2023-03-28T08:39:56.816Z,7.14
2023-03-28T08:40:56.887Z,7.17
2023-03-28T08:41:56.818Z,7.20
2023-03-28T08:42:56.789Z,7.29
2023-03-28T08:43:56.769Z,7.29
2023-03-28T08:44:56.780Z,7.33
2023-03-28T08:45:56.765Z,7.38
2023-03-28T08:46:56.798Z,7.48
2023-03-28T08:47:56.782Z,7.53
2023-03-28T08:48:56.753Z,7.50
2023-03-28T08:49:56.728Z,7.50
2023-03-28T08:50:56.698Z,7.72
2023-03-28T08:51:56.698Z,7.77
2023-03-28T08:52:56.678Z,7.85
2023-03-28T08:53:56.665Z,8.01
2023-03-28T08:54:56.650Z,8.13
2023-03-28T08:55:56.902Z,8.20
2023-03-28T08:56:56.686Z,8.34
2023-03-28T08:57:56.618Z,8.58
2023-03-28T08:58:56.654Z,8.63
2023-03-28T08:59:56.608Z,8.61
2023-03-28T09:00:56.605Z,8.55
2023-03-28T09:01:56.602Z,8.66
2023-03-28T09:02:56.736Z,8.69
2023-03-28T09:03:56.618Z,8.61
2023-03-28T09:05:05.029Z,8.53
2023-03-28T09:05:57.555Z,8.19
2023-03-28T09:06:56.523Z,7.85
2023-03-28T09:07:56.513Z,7.70
2023-03-28T09:08:56.541Z,7.79
2023-03-28T09:09:56.518Z,7.67
2023-03-28T09:10:56.484Z,7.72
2023-03-28T09:11:56.458Z,7.85
2023-03-28T09:12:56.467Z,7.95
2023-03-28T09:13:56.429Z,8.05
2023-03-28T09:14:56.432Z,7.98
2023-03-28T09:15:56.451Z,7.95
2023-03-28T09:16:56.438Z,7.80
2023-03-28T09:17:56.452Z,7.73
2023-03-28T09:18:56.396Z,7.79
2023-03-28T09:19:56.366Z,7.77
2023-03-28T09:20:56.392Z,7.85
2023-03-28T09:22:08.877Z,7.76
2023-03-28T09:22:57.349Z,7.72
2023-03-28T09:23:56.360Z,7.58
2023-03-28T09:24:56.313Z,7.45
2023-03-28T09:25:56.312Z,7.31
2023-03-28T09:26:56.299Z,7.35
2023-03-28T09:27:56.277Z,7.31
2023-03-28T09:28:56.282Z,7.31
2023-03-28T09:29:56.270Z,7.18
2023-03-28T09:30:56.241Z,7.18
2023-03-28T09:31:56.351Z,7.03
2023-03-28T09:32:56.259Z,7.02
2023-03-28T09:33:56.207Z,7.06
2023-03-28T09:34:56.200Z,6.97
2023-03-28T09:35:56.272Z,7.02
2023-03-28T09:36:56.264Z,7.02
2023-03-28T09:37:56.170Z,6.88
2023-03-28T09:38:56.206Z,6.89
2023-03-28T09:39:56.156Z,6.87
2023-03-28T09:40:56.133Z,6.97
2023-03-28T09:41:56.127Z,7.03
2023-03-28T09:42:56.105Z,7.25
2023-03-28T09:43:57.994Z,7.17
2023-03-28T09:44:56.125Z,7.29
2023-03-28T09:45:56.111Z,7.51
2023-03-28T09:46:56.065Z,7.63
2023-03-28T09:47:56.161Z,7.85
2023-03-28T09:48:56.146Z,8.19
2023-03-28T09:50:05.531Z,8.37
2023-03-28T09:50:57.090Z,8.52
2023-03-28T09:51:56.013Z,8.66
2023-03-28T09:52:56.034Z,8.61
2023-03-28T09:53:56.004Z,8.42
2023-03-28T09:54:55.974Z,8.12
2023-03-28T09:56:04.477Z,7.83
2023-03-28T09:56:56.988Z,7.53
2023-03-28T09:57:55.949Z,7.51
2023-03-28T09:58:55.935Z,7.40
2023-03-28T09:59:55.915Z,7.35
2023-03-28T10:00:55.948Z,7.33
2023-03-28T10:01:55.956Z,7.28
2023-03-28T10:02:55.950Z,7.31
2023-03-28T10:03:55.864Z,7.58
2023-03-28T10:04:55.917Z,7.75
2023-03-28T10:05:55.858Z,8.00
2023-03-28T10:06:55.849Z,8.28
2023-03-28T10:07:55.833Z,8.30
2023-03-28T10:08:55.834Z,8.46
2023-03-28T10:09:55.851Z,8.46
2023-03-28T10:10:55.834Z,8.55
2023-03-28T10:11:55.779Z,8.74
2023-03-28T10:12:55.769Z,8.84
2023-03-28T10:13:55.758Z,8.87
2023-03-28T10:14:55.764Z,8.78
2023-03-28T10:15:55.775Z,8.81
2023-03-28T10:16:55.855Z,8.78
2023-03-28T10:17:55.738Z,8.78
2023-03-28T10:18:55.700Z,8.79
2023-03-28T10:19:55.686Z,8.84
2023-03-28T10:20:55.678Z,8.78
2023-03-28T10:21:55.727Z,8.81
2023-03-28T10:22:55.680Z,8.78
2023-03-28T10:23:55.654Z,8.87
2023-03-28T10:24:55.654Z,9.06
2023-03-28T10:25:55.618Z,9.02
2023-03-28T10:26:55.617Z,9.03
2023-03-28T10:27:55.599Z,8.81
2023-03-28T10:28:55.613Z,8.67
2023-03-28T10:29:55.580Z,8.61
2023-03-28T10:30:55.607Z,8.56
2023-03-28T10:31:55.558Z,8.67
2023-03-28T10:32:55.590Z,8.56
2023-03-28T10:33:55.528Z,8.67
2023-03-28T10:34:55.543Z,8.60
2023-03-28T10:35:55.554Z,8.69
2023-03-28T10:36:55.516Z,8.69
2023-03-28T10:37:55.516Z,8.76
2023-03-28T10:38:55.491Z,8.58
2023-03-28T10:39:55.470Z,8.56
2023-03-28T10:40:55.517Z,8.49
2023-03-28T10:41:55.446Z,8.58
2023-03-28T10:42:55.432Z,8.48
2023-03-28T10:43:55.431Z,8.41
2023-03-28T10:44:55.455Z,8.49
2023-03-28T10:45:55.461Z,8.48
2023-03-28T10:46:55.438Z,8.63
2023-03-28T10:47:55.425Z,8.71
2023-03-28T10:48:55.367Z,8.84
2023-03-28T10:49:55.410Z,9.04
2023-03-28T10:50:55.349Z,9.10
2023-03-28T10:51:55.331Z,8.85
2023-03-28T10:52:55.319Z,8.88
2023-03-28T10:53:55.311Z,9.02
2023-03-28T10:54:55.289Z,9.08
2023-03-28T10:55:55.688Z,9.02
2023-03-28T10:56:55.364Z,8.82
2023-03-28T10:57:55.278Z,8.82
2023-03-28T10:58:55.249Z,8.51
2023-03-28T10:59:55.245Z,8.37
2023-03-28T11:00:55.262Z,8.36
2023-03-28T11:01:55.255Z,8.48
2023-03-28T11:02:55.361Z,8.52
2023-03-28T11:03:55.403Z,8.56
2023-03-28T11:04:55.197Z,8.49
2023-03-28T11:06:05.831Z,8.31
2023-03-28T11:06:56.181Z,8.16
2023-03-28T11:07:55.141Z,8.01
2023-03-28T11:08:55.147Z,7.88
2023-03-28T11:09:55.140Z,7.82
2023-03-28T11:10:55.130Z,7.88
2023-03-28T11:11:55.108Z,7.90
2023-03-28T11:12:56.731Z,7.98
2023-03-28T11:13:55.094Z,7.98
2023-03-28T11:14:55.111Z,8.09
2023-03-28T11:15:55.128Z,8.05
2023-03-28T11:16:55.042Z,8.09
2023-03-28T11:17:55.109Z,8.10
2023-03-28T11:18:55.032Z,8.18
2023-03-28T11:19:55.025Z,8.20
2023-03-28T11:20:54.999Z,8.26
2023-03-28T11:21:55.000Z,8.16
2023-03-28T11:23:05.166Z,8.23
2023-03-28T11:23:56.212Z,8.20
2023-03-28T11:24:54.972Z,8.19
2023-03-28T11:25:54.957Z,8.20
2023-03-28T11:27:05.038Z,8.27
2023-03-28T11:27:55.916Z,8.37
2023-03-28T11:28:54.960Z,8.31
2023-03-28T11:29:54.905Z,8.42
2023-03-28T11:30:54.886Z,8.49
2023-03-28T11:31:54.905Z,8.44
2023-03-28T11:32:55.026Z,8.33
2023-03-28T11:33:54.877Z,8.23
2023-03-28T11:34:54.876Z,8.30
2023-03-28T11:35:54.872Z,8.31
2023-03-28T11:36:54.825Z,8.45
2023-03-28T11:37:54.804Z,8.48
2023-03-28T11:38:54.798Z,8.44
2023-03-28T11:39:54.825Z,8.37
2023-03-28T11:40:54.780Z,8.37
2023-03-28T11:41:54.768Z,8.45
2023-03-28T11:42:54.773Z,8.37
2023-03-28T11:43:54.744Z,8.12
2023-03-28T11:44:54.908Z,7.85
2023-03-28T11:45:54.777Z,7.88
2023-03-28T11:46:54.841Z,7.79
2023-03-28T11:47:54.798Z,7.83
2023-03-28T11:48:54.685Z,7.85
2023-03-28T11:49:54.678Z,7.87
2023-03-28T11:50:54.679Z,8.08
2023-03-28T11:51:54.665Z,8.18
2023-03-28T11:52:54.633Z,8.33
2023-03-28T11:53:54.661Z,8.33
2023-03-28T11:54:54.617Z,8.48
2023-03-28T11:55:54.602Z,8.49
2023-03-28T11:56:54.615Z,8.41
2023-03-28T11:57:54.582Z,8.52
2023-03-28T11:58:54.602Z,8.53
2023-03-28T11:59:54.553Z,8.56
2023-03-28T12:00:54.595Z,8.61
2023-03-28T12:01:54.597Z,8.63
2023-03-28T12:02:54.756Z,8.36
2023-03-28T12:03:54.643Z,8.30
2023-03-28T12:04:54.503Z,8.44
2023-03-28T12:06:00.004Z,8.42
2023-03-28T12:07:02.476Z,8.33
2023-03-28T12:07:55.489Z,8.34
2023-03-28T12:08:54.456Z,8.41
2023-03-28T12:09:54.448Z,8.53
2023-03-28T12:10:54.437Z,8.69
2023-03-28T12:11:54.421Z,8.55
2023-03-28T12:12:54.428Z,8.63
2023-03-28T12:14:08.817Z,8.63
2023-03-28T12:14:55.394Z,8.81
2023-03-28T12:15:54.381Z,8.73
2023-03-28T12:16:54.422Z,8.71
2023-03-28T12:17:54.398Z,8.69
2023-03-28T12:18:54.357Z,8.74
2023-03-28T12:19:54.352Z,8.78
2023-03-28T12:20:54.349Z,8.67
2023-03-28T12:21:54.307Z,8.82
2023-03-28T12:22:54.347Z,8.87
2023-03-28T12:23:54.304Z,9.16
2023-03-28T12:24:54.283Z,9.32
2023-03-28T12:25:54.263Z,9.56
2023-03-28T12:26:56.025Z,9.58
2023-03-28T12:27:54.261Z,9.51
2023-03-28T12:28:54.252Z,9.46
2023-03-28T12:29:54.236Z,9.47
2023-03-28T12:30:54.253Z,9.68
2023-03-28T12:31:54.236Z,9.64
2023-03-28T12:32:54.248Z,9.68
2023-03-28T12:33:54.184Z,9.64
2023-03-28T12:34:54.194Z,9.74
2023-03-28T12:35:54.201Z,9.83
2023-03-28T12:36:54.150Z,9.99
2023-03-28T12:37:54.127Z,10.13
2023-03-28T12:38:55.650Z,10.05
2023-03-28T12:39:54.985Z,10.07
2023-03-28T12:40:54.099Z,9.82
2023-03-28T12:41:54.089Z,9.68
2023-03-28T12:42:54.080Z,9.59
2023-03-28T12:43:54.090Z,9.86
2023-03-28T12:44:54.057Z,9.77
2023-03-28T12:45:54.149Z,9.59
2023-03-28T12:46:54.037Z,9.41
2023-03-28T12:47:54.097Z,9.44
2023-03-28T12:48:54.036Z,9.56
2023-03-28T12:49:54.021Z,9.58
2023-03-28T12:50:54.012Z,9.43
2023-03-28T12:51:53.971Z,9.48
2023-03-28T12:52:53.954Z,9.61
2023-03-28T12:53:53.963Z,9.40
2023-03-28T12:54:53.945Z,9.47
2023-03-28T12:55:53.943Z,9.51
2023-03-28T12:56:53.981Z,9.44
2023-03-28T12:57:53.903Z,9.29
2023-03-28T12:58:53.918Z,9.32
2023-03-28T12:59:53.892Z,9.44
2023-03-28T13:00:53.870Z,9.47
2023-03-28T13:01:53.921Z,9.62
2023-03-28T13:02:53.923Z,9.80
2023-03-28T13:03:53.853Z,9.79
2023-03-28T13:04:53.873Z,9.69
2023-03-28T13:05:53.836Z,9.58
2023-03-28T13:06:53.807Z,9.65
2023-03-28T13:07:53.809Z,9.61
2023-03-28T13:08:53.779Z,9.72
2023-03-28T13:09:53.831Z,9.68
2023-03-28T13:10:53.768Z,9.79
2023-03-28T13:11:53.757Z,9.87
2023-03-28T13:12:53.763Z,9.94
2023-03-28T13:13:53.729Z,9.87
2023-03-28T13:14:53.720Z,9.69
2023-03-28T13:15:53.734Z,9.56
2023-03-28T13:16:53.703Z,9.56
2023-03-28T13:17:53.728Z,9.54